Time;durP1;ratioP1;P1;durP2;ratioP2;P2;SDS_P1;SDS_P2;PMS_P1;PMS_P2;Temp;Humidity;BMP_temperature;BMP_pressure;BME280_temperature;BME280_humidity;BME280_pressure;Samples;Min_cycle;Max_cycle;Signal;HPM_P1;HPM_P2
2021/03/02 00:00:23;;;;;;;43.10;26.23;;;6.20;91.70;;;;;;6216417;23;20088;-90
2021/03/02 00:02:52;;;;;;;48.75;27.50;;;6.10;91.70;;;;;;6218026;23;20017;-89
2021/03/02 00:05:21;;;;;;;43.17;26.00;;;6.10;91.80;;;;;;6217882;23;20452;-90
2021/03/02 00:07:46;;;;;;;43.35;26.98;;;6.10;91.80;;;;;;6217356;23;20341;-89
2021/03/02 00:10:13;;;;;;;46.10;27.42;;;6.10;91.70;;;;;;6218335;23;20040;-89
2021/03/02 00:12:51;;;;;;;48.22;27.48;;;6.10;91.80;;;;;;6218278;23;20009;-90
2021/03/02 00:15:17;;;;;;;49.10;28.23;;;6.10;91.90;;;;;;6217100;23;20024;-90
2021/03/02 00:17:48;;;;;;;42.38;25.40;;;6.10;91.80;;;;;;6218022;23;20037;-91
2021/03/02 00:20:23;;;;;;;42.45;27.08;;;6.10;91.90;;;;;;6218098;23;20021;-91
2021/03/02 00:23:46;;;;;;;42.78;26.67;;;6.10;91.90;;;;;;6217153;23;20075;-88
2021/03/02 00:26:18;;;;;;;45.55;27.90;;;6.10;91.80;;;;;;6218047;23;20016;-90
2021/03/02 00:36:27;;;;;;;48.90;27.98;;;6.00;91.70;;;;;;6124569;23;20403;-89
2021/03/02 00:38:53;;;;;;;46.75;27.55;;;5.90;91.70;;;;;;6125700;23;20022;-89
2021/03/02 00:41:51;;;;;;;47.90;28.00;;;5.90;91.70;;;;;;6125910;23;20434;-91
2021/03/02 00:44:27;;;;;;;46.08;27.48;;;5.90;91.60;;;;;;6207039;23;20021;-90
2021/03/02 00:47:06;;;;;;;50.20;29.67;;;5.90;91.70;;;;;;6217094;23;20018;-89
2021/03/02 00:50:02;;;;;;;46.22;28.48;;;5.90;91.90;;;;;;6217647;22;20016;-89
2021/03/02 00:52:41;;;;;;;49.05;28.73;;;5.90;91.90;;;;;;6217793;23;20016;-90
2021/03/02 00:55:10;;;;;;;50.83;30.02;;;5.80;91.60;;;;;;6217779;23;20020;-90
2021/03/02 00:57:37;;;;;;;49.53;29.52;;;5.80;91.80;;;;;;6216873;23;20016;-90
2021/03/02 01:00:08;;;;;;;48.78;28.73;;;5.80;91.70;;;;;;6216357;23;20142;-90
2021/03/02 01:02:49;;;;;;;48.42;28.77;;;5.80;91.70;;;;;;6216599;23;20345;-89
2021/03/02 01:05:17;;;;;;;50.35;29.45;;;5.80;91.70;;;;;;6207351;23;20075;-90
2021/03/02 01:07:59;;;;;;;53.10;30.95;;;5.80;91.70;;;;;;6217527;23;20048;-90
2021/03/02 01:10:26;;;;;;;53.13;30.70;;;5.80;91.80;;;;;;6216933;23;20023;-90
2021/03/02 01:12:52;;;;;;;51.30;29.95;;;5.70;91.60;;;;;;6217310;23;20021;-89
2021/03/02 01:15:53;;;;;;;55.05;29.77;;;5.70;91.70;;;;;;6217131;23;20016;-89
2021/03/02 01:18:30;;;;;;;52.53;29.10;;;5.70;91.80;;;;;;6215728;23;20059;-88
2021/03/02 01:20:56;;;;;;;46.90;28.45;;;5.70;91.90;;;;;;6209802;23;20096;-89
2021/03/02 01:23:54;;;;;;;50.83;30.13;;;5.70;91.60;;;;;;6096032;23;20029;-88
2021/03/02 01:26:23;;;;;;;50.05;30.10;;;5.70;91.80;;;;;;6151534;23;20013;-89
2021/03/02 01:28:55;;;;;;;48.05;29.52;;;5.70;91.70;;;;;;6217033;23;20012;-90
2021/03/02 01:31:21;;;;;;;54.40;31.27;;;5.70;91.70;;;;;;6217565;23;20017;-90
2021/03/02 01:33:53;;;;;;;53.17;31.77;;;5.60;92.10;;;;;;6216876;23;20325;-90
2021/03/02 01:36:18;;;;;;;49.00;29.00;;;5.60;91.80;;;;;;6217133;23;20055;-90
2021/03/02 01:38:52;;;;;;;51.47;29.75;;;5.60;91.80;;;;;;6216360;23;20086;-89
2021/03/02 01:41:37;;;;;;;;;;;5.60;91.90;;;;;;6217837;23;20087;-87
2021/03/02 01:44:05;;;;;;;49.75;28.98;;;5.60;91.60;;;;;;6168538;23;19935;-90
2021/03/02 01:46:50;;;;;;;48.90;28.67;;;5.60;91.80;;;;;;6216672;23;20341;-89
2021/03/02 01:49:19;;;;;;;48.55;29.10;;;5.60;91.90;;;;;;6217571;23;20051;-89
2021/03/02 01:51:48;;;;;;;48.72;29.25;;;5.60;91.80;;;;;;6216613;23;20078;-89
2021/03/02 01:54:31;;;;;;;49.38;29.27;;;5.60;91.80;;;;;;6215742;23;20016;-90
2021/03/02 01:57:14;;;;;;;48.78;28.83;;;5.60;92.00;;;;;;6217627;23;20040;-89
2021/03/02 01:59:40;;;;;;;51.10;29.55;;;5.50;91.70;;;;;;6216115;23;20020;-90
2021/03/02 02:05:55;;;;;;;48.58;28.42;;;5.50;91.90;;;;;;6216872;23;20019;-89
2021/03/02 02:08:58;;;;;;;50.35;29.42;;;5.50;91.90;;;;;;6214299;23;20025;-90
2021/03/02 02:12:07;;;;;;;49.85;29.20;;;5.50;92.00;;;;;;6217091;23;20063;-90
2021/03/02 02:15:04;;;;;;;52.22;29.58;;;5.50;92.00;;;;;;6214510;23;20448;-89
2021/03/02 02:18:04;;;;;;;48.97;28.42;;;5.50;92.00;;;;;;6217006;23;20017;-88
2021/03/02 02:21:10;;;;;;;51.10;29.08;;;5.50;92.00;;;;;;6216916;23;20070;-89
2021/03/02 02:24:12;;;;;;;50.28;28.73;;;5.40;91.90;;;;;;6216994;23;20017;-89
2021/03/02 02:27:09;;;;;;;47.72;27.05;;;5.40;92.00;;;;;;6216921;23;20024;-90
2021/03/02 02:29:50;;;;;;;55.25;31.70;;;5.40;91.90;;;;;;6216010;23;20024;-88
2021/03/02 02:32:30;;;;;;;52.97;28.17;;;5.40;92.00;;;;;;6216818;23;20016;-90
2021/03/02 02:35:41;;;;;;;50.80;29.27;;;5.40;92.00;;;;;;6188815;23;20017;-89
2021/03/02 02:38:28;;;;;;;50.47;28.60;;;5.40;92.00;;;;;;6216610;23;20016;-91
2021/03/02 02:40:55;;;;;;;52.30;29.23;;;5.40;91.90;;;;;;6216585;23;20016;-89
2021/03/02 02:43:33;;;;;;;51.05;28.33;;;5.40;92.00;;;;;;6215641;23;20012;-88
2021/03/02 02:46:28;;;;;;;46.00;27.48;;;5.40;92.00;;;;;;6216819;23;20055;-90
2021/03/02 02:49:09;;;;;;;48.25;28.05;;;5.40;91.90;;;;;;6223102;22;21263;-89
2021/03/02 02:51:45;;;;;;;53.00;29.98;;;5.30;91.90;;;;;;6246597;23;20103;-88
2021/03/02 02:54:13;;;;;;;49.10;28.63;;;5.40;91.90;;;;;;6246793;23;20094;-90
2021/03/02 02:56:59;;;;;;;50.50;28.42;;;5.30;91.90;;;;;;6245799;23;20078;-89
2021/03/02 03:00:33;;;;;;;50.55;28.98;;;5.30;91.90;;;;;;6244599;22;20514;-90
2021/03/02 03:03:10;;;;;;;58.03;31.20;;;5.30;91.80;;;;;;6245460;23;20103;-88
2021/03/02 03:05:39;;;;;;;50.35;29.55;;;5.30;92.10;;;;;;6246759;23;20019;-90
2021/03/02 03:08:24;;;;;;;56.70;30.70;;;5.30;92.10;;;;;;6246811;23;20047;-89
2021/03/02 03:10:52;;;;;;;50.95;29.95;;;5.30;92.10;;;;;;6245902;23;20016;-90
2021/03/02 03:13:22;;;;;;;50.13;28.73;;;5.30;92.00;;;;;;6246928;23;20023;-89
2021/03/02 03:15:53;;;;;;;55.47;31.50;;;5.20;91.90;;;;;;6246811;23;20023;-90
2021/03/02 03:18:46;;;;;;;47.95;28.33;;;5.20;91.90;;;;;;6245684;23;20058;-89
2021/03/02 03:21:13;;;;;;;51.88;29.10;;;5.30;92.00;;;;;;6245822;22;20099;-90
2021/03/02 03:24:07;;;;;;;51.47;29.02;;;5.20;91.90;;;;;;6246299;23;20016;-90
2021/03/02 03:34:35;;;;;;;49.33;29.27;;;5.20;91.80;;;;;;6256875;23;20047;-88
2021/03/02 03:37:12;;;;;;;57.63;30.83;;;5.20;91.90;;;;;;6247126;23;20023;-91
2021/03/02 03:39:49;;;;;;;53.03;29.10;;;5.20;91.90;;;;;;6246492;23;20020;-89
2021/03/02 03:42:27;;;;;;;47.67;28.15;;;5.20;92.00;;;;;;6246886;23;20016;-89
2021/03/02 03:45:13;;;;;;;52.25;29.63;;;5.20;91.90;;;;;;6247276;23;20023;-91
2021/03/02 03:47:39;;;;;;;53.63;30.30;;;5.20;91.90;;;;;;6248169;23;20454;-88
2021/03/02 03:50:09;;;;;;;54.40;30.67;;;5.20;92.00;;;;;;6255307;23;20023;-89
2021/03/02 03:52:41;;;;;;;54.13;30.35;;;5.20;92.00;;;;;;6247866;23;20016;-88
2021/03/02 03:55:27;;;;;;;;;;;5.20;92.10;;;;;;6247162;23;20038;-87
2021/03/02 03:58:17;;;;;;;52.00;28.35;;;5.10;91.70;;;;;;6246658;23;19986;-89
2021/03/02 04:00:49;;;;;;;50.25;28.33;;;5.20;92.10;;;;;;6245965;23;20028;-90
2021/03/02 04:03:23;;;;;;;50.83;28.33;;;5.20;92.10;;;;;;6246587;23;20328;-89
2021/03/02 04:05:49;;;;;;;49.30;28.10;;;5.10;92.10;;;;;;6246912;23;20344;-89
2021/03/02 04:08:18;;;;;;;46.40;26.73;;;5.10;92.00;;;;;;6245918;23;20082;-88
2021/03/02 04:10:49;;;;;;;52.65;30.40;;;5.10;92.40;;;;;;6246701;23;20325;-90
2021/03/02 04:13:18;;;;;;;53.58;28.55;;;5.10;92.00;;;;;;6246192;23;20035;-91
2021/03/02 04:16:00;;;;;;;50.45;28.67;;;5.10;92.00;;;;;;6246623;23;20016;-90
2021/03/02 04:19:43;;;;;;;51.53;28.45;;;5.10;92.00;;;;;;6245917;23;20020;-89
2021/03/02 04:22:09;;;;;;;48.08;28.27;;;5.10;92.00;;;;;;6246915;23;20020;-90
2021/03/02 04:24:35;;;;;;;46.35;28.30;;;5.10;92.00;;;;;;6248475;23;20024;-90
2021/03/02 04:27:07;;;;;;;48.38;27.95;;;5.10;92.00;;;;;;6247952;23;20091;-91
2021/03/02 04:29:39;;;;;;;45.40;27.17;;;5.10;92.00;;;;;;6248285;23;20024;-90
2021/03/02 04:32:05;;;;;;;45.13;26.40;;;5.00;92.00;;;;;;6248750;23;20023;-90
2021/03/02 04:34:42;;;;;;;46.72;27.23;;;5.00;92.00;;;;;;6247388;23;20016;-91
2021/03/02 04:37:08;;;;;;;47.28;27.73;;;5.00;91.90;;;;;;6247969;23;20012;-90
2021/03/02 04:39:40;;;;;;;44.75;26.85;;;5.00;92.00;;;;;;6245554;22;20047;-90
2021/03/02 04:42:12;;;;;;;46.45;27.02;;;5.00;92.00;;;;;;6247013;23;20123;-89
2021/03/02 04:44:44;;;;;;;48.65;27.23;;;5.00;92.00;;;;;;6248301;23;20019;-90
2021/03/02 04:47:26;;;;;;;47.97;27.40;;;5.00;92.10;;;;;;6248160;23;20505;-90
2021/03/02 04:49:51;;;;;;;46.58;26.50;;;5.00;92.10;;;;;;6247201;23;20091;-89
2021/03/02 04:52:28;;;;;;;47.05;27.25;;;5.00;92.10;;;;;;6247805;23;20016;-91
2021/03/02 04:54:55;;;;;;;52.63;29.33;;;5.00;92.20;;;;;;6251291;23;20126;-89
2021/03/02 04:57:23;;;;;;;45.53;26.85;;;4.90;92.20;;;;;;6252147;23;20020;-89
2021/03/02 04:59:48;;;;;;;47.60;27.67;;;5.00;92.20;;;;;;6248020;23;20016;-90
2021/03/02 05:02:31;;;;;;;44.40;26.52;;;5.00;92.20;;;;;;6247862;23;20065;-89
2021/03/02 05:05:11;;;;;;;46.80;27.10;;;5.00;92.30;;;;;;6247943;23;20107;-90
2021/03/02 05:07:49;;;;;;;47.58;27.38;;;5.00;92.20;;;;;;6247068;23;20018;-89
2021/03/02 05:10:27;;;;;;;45.17;25.33;;;5.00;92.20;;;;;;6246795;23;20023;-89
2021/03/02 05:12:56;;;;;;;49.97;27.92;;;5.00;92.20;;;;;;6248128;23;20387;-90
2021/03/02 05:15:21;;;;;;;45.47;27.05;;;4.90;92.10;;;;;;6243900;22;20044;-89
2021/03/02 05:17:51;;;;;;;48.35;27.08;;;5.00;92.10;;;;;;6246463;23;20035;-89
2021/03/02 05:20:17;;;;;;;50.70;28.35;;;4.90;92.20;;;;;;6220405;23;20040;-90
2021/03/02 05:22:43;;;;;;;46.42;26.23;;;4.90;92.30;;;;;;6246043;22;20028;-89
2021/03/02 05:25:12;;;;;;;44.05;26.15;;;5.00;92.20;;;;;;6246549;23;20065;-90
2021/03/02 05:27:46;;;;;;;45.22;26.20;;;4.90;92.10;;;;;;6247713;23;20020;-90
2021/03/02 05:30:24;;;;;;;48.30;27.35;;;4.90;92.00;;;;;;6247726;23;20023;-89
2021/03/02 05:33:11;;;;;;;44.90;25.55;;;4.90;92.10;;;;;;6247275;23;20016;-88
2021/03/02 05:35:46;;;;;;;46.30;26.75;;;4.90;92.10;;;;;;6246923;23;20043;-90
2021/03/02 05:38:21;;;;;;;49.17;27.98;;;4.90;92.20;;;;;;6246927;23;20020;-89
2021/03/02 05:41:03;;;;;;;49.95;27.60;;;4.90;92.20;;;;;;6247362;23;20020;-90
2021/03/02 05:43:43;;;;;;;52.47;28.00;;;4.90;92.30;;;;;;6247798;23;20087;-91
2021/03/02 05:46:22;;;;;;;45.15;25.55;;;4.90;92.30;;;;;;6247069;23;20020;-91
2021/03/02 05:48:48;;;;;;;47.03;26.55;;;4.90;92.20;;;;;;6247375;23;20016;-89
2021/03/02 05:51:34;;;;;;;47.60;27.27;;;4.80;92.10;;;;;;6247661;23;20012;-89
2021/03/02 05:54:01;;;;;;;44.65;26.92;;;4.80;92.10;;;;;;6246817;23;20016;-89
2021/03/02 05:57:22;;;;;;;51.40;27.48;;;4.80;92.00;;;;;;6247539;23;20012;-88
2021/03/02 06:16:46;;;;;;;48.85;26.67;;;4.70;92.20;;;;;;6246929;23;20024;-90
2021/03/02 06:19:44;;;;;;;50.35;27.80;;;4.70;92.30;;;;;;6247079;23;20020;-88
2021/03/02 06:22:56;;;;;;;47.35;27.80;;;4.70;92.30;;;;;;6246680;23;20012;-90
2021/03/02 06:25:47;;;;;;;48.58;27.02;;;4.70;92.30;;;;;;6247334;23;20020;-90
2021/03/02 06:28:14;;;;;;;45.40;26.00;;;4.70;92.30;;;;;;6246104;23;20023;-88
2021/03/02 06:31:13;;;;;;;50.17;27.33;;;4.70;92.20;;;;;;6247219;23;20313;-89
2021/03/02 06:33:38;;;;;;;48.28;26.95;;;4.70;92.20;;;;;;6246356;23;20130;-91
2021/03/02 06:36:23;;;;;;;50.78;28.77;;;4.70;92.20;;;;;;6246133;23;20039;-90
2021/03/02 06:39:35;;;;;;;51.30;28.35;;;4.70;92.30;;;;;;6246676;23;20016;-90
2021/03/02 06:42:35;;;;;;;45.28;25.85;;;4.70;92.30;;;;;;6245984;23;20020;-91
2021/03/02 06:51:51;;;;;;;52.45;29.38;;;4.60;92.20;;;;;;6241940;22;20031;-91
2021/03/02 07:02:51;;;;;;;52.72;27.88;;;4.60;92.20;;;;;;6245600;23;20435;-90
2021/03/02 07:09:41;;;;;;;52.47;27.48;;;4.60;92.30;;;;;;6245798;23;20099;-90
2021/03/02 07:12:10;;;;;;;52.25;28.23;;;4.60;92.20;;;;;;6246546;23;20016;-90
2021/03/02 07:14:53;;;;;;;52.55;27.85;;;4.60;92.20;;;;;;6246848;23;20023;-90
2021/03/02 07:17:55;;;;;;;44.78;26.40;;;4.60;92.40;;;;;;6168246;23;20084;-89
2021/03/02 07:27:55;;;;;;;47.88;26.60;;;4.60;92.30;;;;;;6244920;23;20004;-89
2021/03/02 07:30:44;;;;;;;47.63;27.00;;;4.60;92.30;;;;;;6246039;23;20013;-90
2021/03/02 07:33:30;;;;;;;51.28;28.83;;;4.60;92.30;;;;;;6246427;23;20024;-91
2021/03/02 07:36:11;;;;;;;46.65;26.48;;;4.60;92.30;;;;;;6245940;23;20020;-88
2021/03/02 07:41:47;;;;;;;44.17;26.25;;;4.60;92.30;;;;;;6240653;22;20044;-92
2021/03/02 07:45:04;;;;;;;45.70;26.80;;;4.60;92.30;;;;;;6215778;23;20024;-91
2021/03/02 07:48:07;;;;;;;45.35;26.33;;;4.60;92.30;;;;;;6247041;23;20020;-92
2021/03/02 07:53:16;;;;;;;46.78;26.70;;;4.60;92.30;;;;;;6196468;22;20016;-89
2021/03/02 07:56:28;;;;;;;39.33;24.33;;;4.60;92.20;;;;;;6247387;23;20383;-89
2021/03/02 08:07:08;;;;;;;45.22;25.23;;;4.60;92.30;;;;;;6039007;23;20069;-89
2021/03/02 08:10:10;;;;;;;48.97;25.65;;;4.70;92.20;;;;;;5927346;24;20021;-90
2021/03/02 08:17:34;;;;;;;38.33;23.52;;;4.70;92.20;;;;;;5983382;24;20099;-91
2021/03/02 08:27:14;;;;;;;;;;;;;;;;;;;;;
2021/03/02 08:32:51;;;;;;;39.83;23.88;;;4.70;92.30;;;;;;6181873;23;20032;-91
2021/03/02 08:36:05;;;;;;;39.03;23.00;;;4.80;92.20;;;;;;6187551;23;20013;-90
2021/03/02 08:38:42;;;;;;;39.92;23.52;;;4.80;92.30;;;;;;6212695;22;20425;-89
2021/03/02 08:48:46;;;;;;;40.40;22.70;;;4.70;92.20;;;;;;6247330;23;20070;-89
2021/03/02 08:51:34;;;;;;;40.20;23.60;;;4.80;92.30;;;;;;6248053;23;20318;-89
2021/03/02 08:57:55;;;;;;;42.35;24.23;;;4.90;92.30;;;;;;5981958;24;20057;-88
2021/03/02 09:01:17;;;;;;;41.50;23.60;;;4.90;92.20;;;;;;6096324;23;20026;-89
2021/03/02 09:11:41;;;;;;;37.40;22.70;;;4.90;92.30;;;;;;6095933;23;20017;-92
2021/03/02 09:14:48;;;;;;;37.10;23.02;;;5.00;92.30;;;;;;6096334;23;20566;-90
2021/03/02 09:17:47;;;;;;;40.38;23.05;;;5.00;92.30;;;;;;6095717;23;20018;-93
2021/03/02 09:28:22;;;;;;;40.10;23.60;;;5.00;92.20;;;;;;6096700;23;20101;-88
2021/03/02 09:31:46;;;;;;;38.72;22.95;;;5.00;92.20;;;;;;6032600;23;20387;-90
2021/03/02 09:40:10;;;;;;;35.67;22.38;;;5.10;92.20;;;;;;6236827;22;20028;31
2021/03/02 09:42:38;;;;;;;37.28;22.42;;;5.20;92.30;;;;;;6174614;22;20008;-90
2021/03/02 09:45:53;;;;;;;39.20;23.95;;;5.20;92.20;;;;;;6246322;23;20386;-91
2021/03/02 09:57:06;;;;;;;38.72;23.90;;;5.20;92.20;;;;;;6154602;23;20063;-90
2021/03/02 10:00:30;;;;;;;41.92;24.00;;;5.30;92.10;;;;;;6154599;23;20498;-92
2021/03/02 10:13:33;;;;;;;36.50;23.05;;;5.60;92.20;;;;;;6138540;23;20030;-90
2021/03/02 10:16:17;;;;;;;40.13;23.92;;;5.60;92.10;;;;;;6103063;23;20021;-92
2021/03/02 10:25:57;;;;;;;34.25;21.92;;;5.80;92.00;;;;;;6244196;22;20467;-92
2021/03/02 10:32:34;;;;;;;38.70;23.92;;;5.90;92.00;;;;;;6067789;23;20074;-91
2021/03/02 10:37:51;;;;;;;36.35;22.70;;;6.00;92.00;;;;;;6230930;22;20031;-93
2021/03/02 10:40:30;;;;;;;37.67;23.77;;;6.00;91.90;;;;;;6154116;23;20020;-90
2021/03/02 10:43:21;;;;;;;40.10;24.38;;;6.10;91.80;;;;;;6247594;23;20066;-93
2021/03/02 10:50:06;;;;;;;36.10;22.50;;;6.20;92.00;;;;;;6244722;22;20022;-91
2021/03/02 10:56:32;;;;;;;37.92;23.58;;;6.30;92.00;;;;;;6246865;23;20062;-91
2021/03/02 11:02:38;;;;;;;34.45;23.58;;;6.50;91.90;;;;;;6230129;22;20527;-92
2021/03/02 11:05:06;;;;;;;36.53;22.88;;;6.60;91.70;;;;;;6248064;23;20016;-92
2021/03/02 11:07:49;;;;;;;38.30;24.63;;;6.70;91.80;;;;;;6248176;23;20454;-92
2021/03/02 11:10:21;;;;;;;36.20;23.13;;;6.80;91.70;;;;;;6247052;23;20016;-91
2021/03/02 11:13:11;;;;;;;36.45;24.15;;;6.80;92.00;;;;;;6247150;23;20328;-90
2021/03/02 11:15:38;;;;;;;35.30;23.15;;;6.90;91.70;;;;;;6246721;23;20020;-93
2021/03/02 11:18:17;;;;;;;34.13;22.92;;;7.00;91.70;;;;;;6247399;23;20023;-91
2021/03/02 11:20:44;;;;;;;34.83;22.88;;;7.00;91.60;;;;;;6247627;23;20017;-93
2021/03/02 11:23:22;;;;;;;30.75;21.65;;;7.10;91.60;;;;;;6246668;23;20440;-93
2021/03/02 11:25:48;;;;;;;35.47;22.92;;;7.20;91.40;;;;;;6247496;23;20024;-93
2021/03/02 11:51:14;;;;;;;31.40;21.85;;;7.90;91.00;;;;;;6246331;23;20015;-91
2021/03/02 12:00:50;;;;;;;34.50;22.15;;;8.20;90.90;;;;;;6247634;23;20359;-91
2021/03/02 12:36:44;;;;;;;28.85;20.70;;;9.30;89.90;;;;;;6187270;23;20028;-92
2021/03/02 12:39:10;;;;;;;28.88;20.83;;;9.50;89.30;;;;;;6248110;23;20453;-93
2021/03/02 12:41:39;;;;;;;31.35;21.63;;;9.50;88.50;;;;;;6247643;23;20023;-93
2021/03/02 12:44:54;;;;;;;29.92;20.83;;;9.60;88.30;;;;;;6250356;23;20026;-93
2021/03/02 12:47:49;;;;;;;;;;;9.70;88.00;;;;;;6248045;23;20334;-93
2021/03/02 12:54:39;;;;;;;26.63;18.67;;;9.90;89.20;;;;;;6218064;23;20045;-94
2021/03/02 12:58:41;;;;;;;31.40;20.42;;;10.00;89.00;;;;;;6184956;23;20345;-93
2021/03/02 13:01:12;;;;;;;29.05;20.77;;;10.10;89.10;;;;;;5983432;24;20423;-95
2021/03/02 13:03:45;;;;;;;29.65;20.45;;;10.30;89.00;;;;;;6000812;23;20025;-94
2021/03/02 13:09:39;;;;;;;28.65;20.58;;;10.40;88.90;;;;;;6257997;22;20100;-90
2021/03/02 13:12:06;;;;;;;29.02;21.00;;;10.50;88.90;;;;;;6188449;23;20017;-92
2021/03/02 13:31:23;;;;;;;26.48;19.63;;;11.00;87.10;;;;;;6246037;22;20028;-91
2021/03/02 15:12:45;;;;;;;19.73;15.50;;;12.70;85.00;;;;;;6249762;22;20142;-91
2021/03/02 15:23:49;;;;;;;19.63;14.75;;;12.70;82.80;;;;;;6212890;23;20086;-93
2021/03/02 15:46:58;;;;;;;;;;;;;;;;;;;;;
2021/03/02 17:10:10;;;;;;;23.25;16.70;;;12.70;87.90;;;;;;6273899;22;20098;-91
2021/03/02 17:32:40;;;;;;;22.13;16.52;;;12.60;89.50;;;;;;6209104;23;20430;-91
2021/03/02 17:35:14;;;;;;;22.60;17.52;;;12.60;89.90;;;;;;6171893;23;20018;-89
2021/03/02 17:37:40;;;;;;;22.60;17.35;;;12.50;90.00;;;;;;6192495;23;20024;-92
2021/03/02 17:40:45;;;;;;;20.13;15.50;;;12.50;90.00;;;;;;6248203;23;20044;-91
2021/03/02 17:43:14;;;;;;;21.38;16.95;;;12.50;89.90;;;;;;6247667;23;20445;-91
2021/03/02 17:45:55;;;;;;;23.38;17.52;;;12.50;90.00;;;;;;6247436;23;20449;-90
2021/03/02 17:48:48;;;;;;;20.45;16.55;;;12.50;90.00;;;;;;6247528;23;20098;-89
2021/03/02 17:52:12;;;;;;;22.52;17.27;;;12.40;89.80;;;;;;6247725;23;20018;-91
2021/03/02 17:55:06;;;;;;;24.40;17.38;;;12.30;89.70;;;;;;6278047;22;20344;-91
2021/03/02 17:57:40;;;;;;;22.15;17.30;;;12.30;90.00;;;;;;6278234;22;20012;-90
2021/03/02 18:04:03;;;;;;;22.27;17.63;;;12.20;89.90;;;;;;6277584;22;20016;-90
2021/03/02 18:10:10;;;;;;;22.77;17.33;;;12.10;90.00;;;;;;6278413;22;20038;-90
2021/03/02 18:12:40;;;;;;;22.08;16.52;;;12.10;90.00;;;;;;6277994;22;20050;-89
2021/03/02 18:15:40;;;;;;;23.33;17.35;;;12.10;90.00;;;;;;6255116;22;20099;-90
2021/03/02 18:18:11;;;;;;;22.33;17.10;;;12.00;90.00;;;;;;6247981;23;20016;-90
2021/03/02 18:20:46;;;;;;;22.13;17.38;;;12.00;90.10;;;;;;6247602;23;20066;-89
2021/03/02 18:23:49;;;;;;;24.35;17.95;;;11.90;90.00;;;;;;6247708;23;20441;-90
2021/03/02 18:27:10;;;;;;;22.80;16.98;;;11.90;90.10;;;;;;6221755;22;20024;-93
2021/03/02 18:30:14;;;;;;;23.35;17.85;;;11.80;90.20;;;;;;6228718;23;20398;-91
2021/03/02 18:32:41;;;;;;;24.77;18.45;;;11.80;90.20;;;;;;6197877;22;20023;-91
2021/03/02 18:35:51;;;;;;;;;;;;;;;;;;;;;
2021/03/02 18:53:25;;;;;;;;;;;;;;;;;;;;;
2021/03/02 18:56:42;;;;;;;26.45;20.10;;;11.40;90.50;;;;;;6147991;23;20020;-90
2021/03/02 19:24:45;;;;;;;26.50;19.55;;;11.00;90.60;;;;;;6214412;23;20313;-90
2021/03/02 20:00:01;;;;;;;26.80;18.88;;;10.40;90.80;;;;;;6256597;22;20375;-90
2021/03/02 20:02:48;;;;;;;25.13;18.90;;;10.30;90.80;;;;;;6038890;23;20532;-90
2021/03/02 20:05:16;;;;;;;25.08;18.50;;;10.30;90.70;;;;;;6039137;23;20344;-88
2021/03/02 20:19:14;;;;;;;24.40;18.02;;;10.10;90.90;;;;;;6249630;22;20031;-90
2021/03/02 20:21:46;;;;;;;26.27;18.42;;;10.00;90.80;;;;;;6279231;22;20371;-90
2021/03/02 20:24:12;;;;;;;25.83;19.55;;;10.00;90.90;;;;;;6277328;22;20020;-89
2021/03/02 20:37:46;;;;;;;24.08;18.75;;;9.90;91.10;;;;;;6225746;22;20028;-90
2021/03/02 20:40:35;;;;;;;;;;;9.90;91.00;;;;;;6279165;22;20318;-87
2021/03/02 20:43:10;;;;;;;25.73;18.90;;;9.70;90.80;;;;;;6278976;22;19915;-90
2021/03/02 20:46:12;;;;;;;25.85;19.25;;;9.70;90.90;;;;;;6199443;22;20047;-90
2021/03/02 20:48:38;;;;;;;25.58;19.45;;;9.70;91.10;;;;;;6279000;22;20016;-89
2021/03/02 20:51:46;;;;;;;27.20;19.40;;;9.70;91.00;;;;;;6278731;22;20015;-90
2021/03/02 20:54:33;;;;;;;26.33;18.95;;;9.60;91.10;;;;;;6277846;22;20022;-89
2021/03/02 20:57:08;;;;;;;26.73;19.52;;;9.60;91.10;;;;;;6278763;22;20047;-90
2021/03/02 20:59:37;;;;;;;26.38;19.67;;;9.60;91.10;;;;;;6277450;22;20058;-90
2021/03/02 21:05:55;;;;;;;24.73;18.15;;;9.50;91.20;;;;;;6280086;22;20091;-89
2021/03/02 21:08:33;;;;;;;25.52;18.33;;;9.40;91.10;;;;;;6278118;22;20039;-88
2021/03/02 21:33:12;;;;;;;26.02;17.83;;;9.00;91.20;;;;;;6253813;22;20081;-89
2021/03/02 21:35:59;;;;;;;29.17;20.02;;;9.00;91.30;;;;;;6153879;23;20029;-90
2021/03/02 21:38:49;;;;;;;28.80;19.80;;;8.90;91.40;;;;;;6155185;23;20073;-89
2021/03/02 21:41:44;;;;;;;26.08;18.70;;;8.90;91.40;;;;;;6153786;23;20464;-90
2021/03/02 21:44:40;;;;;;;25.55;18.65;;;8.90;91.40;;;;;;6275429;22;20019;-89
2021/03/02 21:50:46;;;;;;;25.17;18.83;;;8.80;91.50;;;;;;6277577;22;20513;-89
2021/03/02 21:53:43;;;;;;;26.13;18.45;;;8.70;91.40;;;;;;6278006;22;20335;-89
2021/03/02 21:56:34;;;;;;;24.77;18.35;;;8.70;91.40;;;;;;6277023;22;20069;-88
2021/03/02 21:59:37;;;;;;;25.67;19.25;;;8.70;91.50;;;;;;6277305;22;20016;-89
2021/03/02 22:02:09;;;;;;;25.70;19.08;;;8.60;91.50;;;;;;6277611;22;20444;-88
2021/03/02 22:04:34;;;;;;;27.83;19.33;;;8.60;91.50;;;;;;6276898;22;20383;-89
2021/03/02 22:07:50;;;;;;;29.33;19.98;;;8.60;91.50;;;;;;6277713;22;20016;-89
2021/03/02 22:10:48;;;;;;;25.50;18.15;;;8.50;91.60;;;;;;6266075;22;20030;-89
2021/03/02 22:13:48;;;;;;;25.50;18.15;;;8.50;91.40;;;;;;6247508;23;20027;-88
2021/03/02 22:17:03;;;;;;;30.42;19.23;;;8.40;91.50;;;;;;6247268;23;20019;-88
2021/03/02 22:19:38;;;;;;;27.13;18.30;;;8.40;91.50;;;;;;6247228;23;20027;-89
2021/03/02 22:22:16;;;;;;;25.20;18.38;;;8.30;91.50;;;;;;6247128;23;20036;-91
2021/03/02 22:28:46;;;;;;;25.95;18.60;;;8.20;91.50;;;;;;6247336;23;20019;-92
2021/03/02 22:34:51;;;;;;;25.10;18.35;;;8.10;91.50;;;;;;6269273;22;20344;-91
2021/03/02 22:37:49;;;;;;;26.67;18.02;;;8.00;91.40;;;;;;6235591;23;20020;-92
2021/03/02 22:40:47;;;;;;;27.60;18.80;;;8.00;91.40;;;;;;6087270;23;20019;-91
2021/03/02 22:43:15;;;;;;;25.38;18.08;;;7.90;91.30;;;;;;6098593;23;20015;-92
2021/03/02 22:45:46;;;;;;;25.30;17.75;;;7.90;91.30;;;;;;6097514;23;20049;-91
2021/03/02 22:48:12;;;;;;;25.55;19.08;;;7.90;91.40;;;;;;6086470;23;20077;-92
2021/03/02 22:51:05;;;;;;;26.92;19.08;;;7.80;91.40;;;;;;6098195;23;20026;-91
2021/03/02 22:53:46;;;;;;;26.30;19.00;;;7.80;91.60;;;;;;6097736;23;20025;-90
2021/03/02 22:59:48;;;;;;;26.58;18.55;;;7.70;91.50;;;;;;6097799;23;20093;-91
2021/03/02 23:02:50;;;;;;;28.15;19.73;;;7.70;91.40;;;;;;6098344;23;20015;-89
2021/03/02 23:05:37;;;;;;;28.27;19.13;;;7.60;91.60;;;;;;6097538;23;20162;-92
2021/03/02 23:08:11;;;;;;;26.35;18.52;;;7.60;91.60;;;;;;6098452;23;20030;-90
2021/03/02 23:10:46;;;;;;;26.88;19.25;;;7.50;91.60;;;;;;6098672;23;20081;-92
2021/03/02 23:13:13;;;;;;;27.30;19.40;;;7.50;91.60;;;;;;6097608;23;20094;-91
2021/03/02 23:15:45;;;;;;;29.02;20.17;;;7.50;91.80;;;;;;6073134;23;20376;-91
2021/03/02 23:19:04;;;;;;;27.20;19.50;;;7.50;91.70;;;;;;6098486;23;20025;-90
2021/03/02 23:21:53;;;;;;;28.20;19.33;;;7.40;91.80;;;;;;6050421;23;20026;-92
2021/03/02 23:24:44;;;;;;;28.58;19.45;;;7.40;91.70;;;;;;6097486;23;20025;-92
2021/03/02 23:27:44;;;;;;;28.00;18.90;;;7.40;91.80;;;;;;6101318;23;20015;-91
2021/03/02 23:30:45;;;;;;;26.15;18.25;;;7.30;91.80;;;;;;6109268;23;20143;-93
2021/03/02 23:33:18;;;;;;;26.92;19.08;;;7.30;91.70;;;;;;6009724;23;20019;-90
2021/03/02 23:36:14;;;;;;;26.35;17.80;;;7.30;91.80;;;;;;6008768;23;20046;-91
2021/03/02 23:38:43;;;;;;;28.23;19.70;;;7.20;91.80;;;;;;6019782;23;20052;-92
2021/03/02 23:41:12;;;;;;;29.83;18.67;;;7.20;91.80;;;;;;6052028;23;20037;-91
2021/03/02 23:43:38;;;;;;;26.65;18.88;;;7.20;91.80;;;;;;6127273;23;20024;-90
2021/03/02 23:46:11;;;;;;;27.20;18.65;;;7.10;91.70;;;;;;6126964;23;20093;-90
2021/03/02 23:48:45;;;;;;;27.27;18.98;;;7.10;91.90;;;;;;6126345;23;20018;-91
2021/03/02 23:51:18;;;;;;;25.77;18.70;;;7.10;91.80;;;;;;6127181;23;20387;-92
2021/03/02 23:53:43;;;;;;;29.65;19.20;;;7.00;91.80;;;;;;6204070;22;20407;-90
2021/03/02 23:56:12;;;;;;;27.67;17.17;;;7.00;91.80;;;;;;6245795;23;20083;-89
2021/03/02 23:58:46;;;;;;;29.13;19.98;;;7.00;91.80;;;;;;6246652;23;20452;-91
